Time;durP1;ratioP1;P1;durP2;ratioP2;P2;SDS_P1;SDS_P2;PMS_P1;PMS_P2;Temp;Humidity;BMP_temperature;BMP_pressure;BME280_temperature;BME280_humidity;BME280_pressure;Samples;Min_cycle;Max_cycle;Signal;HPM_P1;HPM_P2
2023/02/05 00:01:31;;;;;;;9.55;6.15;;;2.60;99.90;;;;;;4947079;28;20206;-73
2023/02/05 00:03:58;;;;;;;6.07;5.47;;;2.60;99.90;;;;;;4952987;28;20199;-72
2023/02/05 00:06:25;;;;;;;9.20;6.30;;;2.60;99.90;;;;;;4955210;28;20247;-74
2023/02/05 00:08:52;;;;;;;6.32;5.63;;;2.60;99.90;;;;;;4959712;28;20642;-74
2023/02/05 00:11:19;;;;;;;13.20;6.10;;;2.50;99.90;;;;;;4952557;28;20221;-72
2023/02/05 00:13:48;;;;;;;8.52;6.43;;;2.50;99.90;;;;;;4958088;28;20198;-74
2023/02/05 00:16:19;;;;;;;11.27;5.78;;;2.50;99.90;;;;;;4947793;28;20223;-75
2023/02/05 00:18:46;;;;;;;7.30;5.63;;;2.60;99.90;;;;;;4958922;28;20295;-72
2023/02/05 00:21:14;;;;;;;7.32;6.13;;;2.60;99.90;;;;;;4951475;28;20199;-73
2023/02/05 00:23:41;;;;;;;5.20;4.70;;;2.60;99.90;;;;;;4954702;28;20215;-73
2023/02/05 00:26:12;;;;;;;6.00;5.47;;;2.60;99.90;;;;;;4944379;28;20264;-73
2023/02/05 00:28:39;;;;;;;6.13;4.38;;;2.60;99.90;;;;;;4948125;28;20256;-74
2023/02/05 00:31:11;;;;;;;6.40;4.65;;;2.60;99.90;;;;;;4950522;28;20202;-74
2023/02/05 00:33:40;;;;;;;6.43;5.50;;;2.50;99.90;;;;;;4977344;28;20282;-73
2023/02/05 00:36:08;;;;;;;5.72;4.68;;;2.60;99.90;;;;;;4949199;28;20223;-75
2023/02/05 00:38:35;;;;;;;10.73;5.80;;;2.60;99.90;;;;;;4944445;28;20277;-73
2023/02/05 00:41:03;;;;;;;7.32;6.05;;;2.50;99.90;;;;;;4962480;28;20547;-74
2023/02/05 00:43:30;;;;;;;6.80;5.47;;;2.50;99.90;;;;;;4953068;28;20595;-73
2023/02/05 00:45:56;;;;;;;4.80;4.28;;;2.50;99.90;;;;;;4965190;28;20621;-75
2023/02/05 00:48:25;;;;;;;6.38;5.05;;;2.60;99.90;;;;;;4960115;28;20218;-72
2023/02/05 00:50:54;;;;;;;6.95;5.78;;;2.50;99.90;;;;;;4951822;28;20277;-75
2023/02/05 00:53:22;;;;;;;7.53;6.63;;;2.50;99.90;;;;;;4963726;28;20199;-74
2023/02/05 00:55:50;;;;;;;8.95;5.60;;;2.50;99.90;;;;;;4963113;28;20230;-75
2023/02/05 00:58:17;;;;;;;6.82;4.45;;;2.50;99.90;;;;;;4961160;28;20199;-74
2023/02/05 01:00:45;;;;;;;6.15;4.90;;;2.50;99.90;;;;;;4955508;28;20242;-73
2023/02/05 01:03:12;;;;;;;9.80;5.53;;;2.50;99.90;;;;;;4961880;28;20199;-72
2023/02/05 01:05:41;;;;;;;6.07;4.95;;;2.40;99.90;;;;;;4964021;28;20300;-75
2023/02/05 01:08:10;;;;;;;5.03;4.38;;;2.30;99.90;;;;;;4960783;28;20246;-74
2023/02/05 01:10:37;;;;;;;7.30;5.25;;;2.30;99.90;;;;;;4945936;28;20203;-73
2023/02/05 01:13:05;;;;;;;6.47;5.07;;;2.30;99.90;;;;;;4951864;28;20288;-74
2023/02/05 01:15:32;;;;;;;6.45;5.10;;;2.30;99.90;;;;;;4960455;28;20253;-72
2023/02/05 01:17:59;;;;;;;5.90;4.90;;;2.20;99.90;;;;;;4962151;28;20201;-75
2023/02/05 01:20:27;;;;;;;6.88;5.32;;;2.20;99.90;;;;;;4955383;28;20649;-73
2023/02/05 01:22:56;;;;;;;8.77;6.65;;;2.20;99.90;;;;;;4962684;28;20243;-74
2023/02/05 01:25:23;;;;;;;14.82;5.68;;;2.20;99.90;;;;;;4956461;28;20318;-73
2023/02/05 01:27:50;;;;;;;5.93;5.32;;;2.20;99.90;;;;;;4951924;28;20271;-74
2023/02/05 01:30:18;;;;;;;9.15;6.25;;;2.20;99.90;;;;;;4964611;28;20229;-73
2023/02/05 01:32:45;;;;;;;9.63;6.13;;;2.20;99.90;;;;;;4965326;28;20296;-73
2023/02/05 01:35:12;;;;;;;7.38;5.40;;;2.20;99.90;;;;;;4967843;28;20222;-73
2023/02/05 01:37:39;;;;;;;7.65;4.97;;;2.10;99.90;;;;;;4966270;28;20266;-72
2023/02/05 01:40:12;;;;;;;9.48;5.38;;;2.20;99.90;;;;;;4961663;28;20222;-75
2023/02/05 01:42:39;;;;;;;9.65;5.10;;;2.20;99.90;;;;;;4961656;28;20217;-74
2023/02/05 01:45:50;;;;;;;5.78;4.85;;;2.30;99.90;;;;;;4964113;28;20281;-73
2023/02/05 01:48:22;;;;;;;8.60;4.95;;;2.30;99.90;;;;;;4956606;28;20312;-74
2023/02/05 01:50:53;;;;;;;9.52;5.07;;;2.30;99.90;;;;;;4963067;28;20323;-73
2023/02/05 01:53:25;;;;;;;6.68;5.30;;;2.40;99.90;;;;;;4967037;28;20282;-74
2023/02/05 01:55:56;;;;;;;5.28;4.22;;;2.30;99.90;;;;;;4955809;28;20219;-73
2023/02/05 01:58:26;;;;;;;8.57;5.07;;;2.30;99.90;;;;;;4962794;28;20234;-73
2023/02/05 02:00:53;;;;;;;6.00;4.70;;;2.30;99.90;;;;;;4958811;28;20282;-73
2023/02/05 02:03:22;;;;;;;9.05;5.15;;;2.30;99.90;;;;;;4951304;28;20211;-75
2023/02/05 02:05:50;;;;;;;8.40;5.15;;;2.30;99.90;;;;;;4963259;28;20251;-73
2023/02/05 02:08:17;;;;;;;6.97;4.90;;;2.30;99.90;;;;;;4961062;28;20207;-72
2023/02/05 02:10:46;;;;;;;5.55;4.55;;;2.30;99.90;;;;;;4953386;28;20235;-75
2023/02/05 02:13:15;;;;;;;6.47;4.78;;;2.30;99.90;;;;;;4963899;28;20294;-72
2023/02/05 02:15:42;;;;;;;6.45;5.60;;;2.40;99.90;;;;;;4966608;28;20399;-76
2023/02/05 02:18:28;;;;;;;6.53;5.85;;;2.40;99.90;;;;;;4961110;28;20822;-72
2023/02/05 02:21:27;;;;;;;5.78;4.60;;;2.50;99.90;;;;;;4947962;28;20202;-73
2023/02/05 02:24:24;;;;;;;6.15;5.22;;;2.50;99.90;;;;;;4981332;28;20618;-72
2023/02/05 02:27:05;;;;;;;6.07;4.82;;;2.50;99.90;;;;;;4954309;28;20575;-73
2023/02/05 02:29:38;;;;;;;8.05;5.25;;;2.50;99.90;;;;;;4962634;28;20218;-73
2023/02/05 02:32:14;;;;;;;8.55;6.13;;;2.50;99.90;;;;;;4963146;28;20744;-72
2023/02/05 02:34:47;;;;;;;6.90;5.45;;;2.50;99.90;;;;;;4984100;28;20198;-75
2023/02/05 02:37:22;;;;;;;7.43;5.75;;;2.60;99.90;;;;;;4955283;28;20214;-73
2023/02/05 02:39:57;;;;;;;8.05;5.30;;;2.70;99.90;;;;;;4952182;28;20199;-74
2023/02/05 02:42:33;;;;;;;8.93;5.35;;;2.70;99.90;;;;;;4960748;28;20249;-74
2023/02/05 02:45:05;;;;;;;8.05;5.55;;;2.70;99.90;;;;;;4962405;28;20228;-77
2023/02/05 02:47:37;;;;;;;10.75;6.10;;;2.70;99.90;;;;;;4963573;28;20213;-73
2023/02/05 02:50:09;;;;;;;7.78;5.40;;;2.80;99.90;;;;;;4953318;28;20223;-73
2023/02/05 02:52:42;;;;;;;6.97;5.07;;;2.70;99.90;;;;;;4950361;28;20204;-74
2023/02/05 02:55:12;;;;;;;5.45;4.95;;;2.80;99.90;;;;;;4953744;28;20215;-73
2023/02/05 02:57:42;;;;;;;7.07;5.85;;;2.80;99.90;;;;;;4967813;28;20191;-73
2023/02/05 03:00:16;;;;;;;6.40;5.53;;;2.80;99.90;;;;;;4963969;28;20232;-74
2023/02/05 03:02:45;;;;;;;5.40;4.88;;;2.80;99.90;;;;;;4959291;28;20598;-76
2023/02/05 03:05:21;;;;;;;6.03;5.32;;;2.70;99.90;;;;;;4964210;28;20250;-74
2023/02/05 03:07:52;;;;;;;6.05;5.45;;;2.70;99.90;;;;;;4957397;28;20297;-73
2023/02/05 03:10:26;;;;;;;6.82;5.25;;;2.70;99.90;;;;;;4964397;28;20305;-73
2023/02/05 03:12:55;;;;;;;7.45;6.13;;;2.70;99.90;;;;;;4956863;28;20291;-72
2023/02/05 03:15:23;;;;;;;12.35;5.85;;;2.70;99.90;;;;;;4956558;28;20741;-73
2023/02/05 03:17:51;;;;;;;6.72;5.10;;;2.70;99.90;;;;;;4952448;28;20551;-72
2023/02/05 03:20:22;;;;;;;9.95;5.78;;;2.70;99.90;;;;;;4957148;28;20206;-72
2023/02/05 03:22:49;;;;;;;6.00;4.95;;;2.70;99.90;;;;;;4952337;28;20194;-74
2023/02/05 03:25:20;;;;;;;5.53;4.68;;;2.70;99.90;;;;;;4954444;28;20223;-72
2023/02/05 03:27:48;;;;;;;8.20;5.90;;;2.70;99.90;;;;;;4961900;28;20203;-75
2023/02/05 03:30:16;;;;;;;6.50;5.18;;;2.70;99.90;;;;;;4952780;28;20300;-73
2023/02/05 03:33:00;;;;;;;7.20;5.50;;;2.80;99.90;;;;;;4949473;28;20211;-73
2023/02/05 03:35:33;;;;;;;7.18;5.82;;;2.90;99.90;;;;;;4956968;28;20287;-72
2023/02/05 03:38:09;;;;;;;10.13;4.93;;;2.80;99.90;;;;;;4948894;28;20547;-74
2023/02/05 03:40:46;;;;;;;9.10;7.00;;;2.80;99.90;;;;;;4957866;28;20220;-73
2023/02/05 03:43:16;;;;;;;6.43;5.75;;;2.80;99.90;;;;;;4955501;28;20237;-74
2023/02/05 03:45:48;;;;;;;8.77;6.07;;;2.80;99.90;;;;;;4957989;28;20225;-74
2023/02/05 03:48:31;;;;;;;10.13;5.63;;;2.80;99.90;;;;;;4958827;28;20306;-73
2023/02/05 03:51:08;;;;;;;7.15;5.47;;;2.90;99.90;;;;;;4960233;28;20317;-72
2023/02/05 03:53:39;;;;;;;8.82;5.53;;;2.80;99.90;;;;;;4941230;28;20476;-73
2023/02/05 03:56:13;;;;;;;7.40;5.35;;;2.90;99.90;;;;;;4962744;28;20710;-74
2023/02/05 03:58:43;;;;;;;8.10;6.20;;;2.80;99.90;;;;;;4955443;28;20225;-72
2023/02/05 04:01:12;;;;;;;7.68;5.75;;;2.90;99.90;;;;;;4953005;28;20195;-73
2023/02/05 04:03:40;;;;;;;8.27;4.78;;;2.90;99.90;;;;;;4959225;28;20195;-74
2023/02/05 04:06:07;;;;;;;7.72;5.90;;;2.90;99.90;;;;;;4965122;28;20246;-74
2023/02/05 04:08:34;;;;;;;9.52;5.63;;;2.90;99.90;;;;;;4951382;28;20290;-73
2023/02/05 04:11:03;;;;;;;7.68;4.80;;;2.80;99.90;;;;;;4958691;28;20321;-73
2023/02/05 04:13:29;;;;;;;8.20;5.55;;;2.80;99.90;;;;;;4953734;28;20552;-72
2023/02/05 04:15:56;;;;;;;8.10;5.75;;;2.80;99.90;;;;;;4949943;28;20705;-73
2023/02/05 04:18:23;;;;;;;8.85;5.03;;;2.70;99.90;;;;;;4958806;28;20245;-73
2023/02/05 04:20:52;;;;;;;5.38;4.85;;;2.70;99.90;;;;;;4962179;28;20273;-74
2023/02/05 04:23:19;;;;;;;8.88;6.03;;;2.70;99.90;;;;;;4960275;28;20223;-73
2023/02/05 04:25:46;;;;;;;7.47;5.28;;;2.70;99.90;;;;;;4951970;28;20234;-73
2023/02/05 04:28:13;;;;;;;5.03;4.63;;;2.60;99.90;;;;;;4957695;28;20272;-73
2023/02/05 04:30:40;;;;;;;5.88;5.22;;;2.60;99.90;;;;;;4951345;28;20214;-73
2023/02/05 04:33:06;;;;;;;7.10;5.80;;;2.60;99.90;;;;;;4959415;28;20276;-73
2023/02/05 04:35:33;;;;;;;6.35;5.18;;;2.60;99.90;;;;;;4959911;28;20261;-73
2023/02/05 04:38:02;;;;;;;17.92;6.60;;;2.60;99.90;;;;;;4956563;28;20246;-73
2023/02/05 04:40:29;;;;;;;5.32;4.80;;;2.60;99.90;;;;;;4954017;28;20239;-72
2023/02/05 04:42:56;;;;;;;6.75;5.88;;;2.60;99.90;;;;;;4957215;28;20297;-75
2023/02/05 04:45:25;;;;;;;12.85;6.05;;;2.60;99.90;;;;;;4958301;28;20219;-73
2023/02/05 04:47:52;;;;;;;5.57;4.97;;;2.50;99.90;;;;;;4954417;28;20646;-72
2023/02/05 04:50:19;;;;;;;7.68;5.72;;;2.40;99.90;;;;;;4950565;28;20610;-73
2023/02/05 04:52:46;;;;;;;6.47;5.80;;;2.50;99.90;;;;;;4951749;29;20278;-75
2023/02/05 04:55:15;;;;;;;6.10;5.32;;;2.50;99.90;;;;;;4950737;28;20229;-75
2023/02/05 04:57:42;;;;;;;7.80;7.00;;;2.50;99.90;;;;;;4952691;28;20234;-72
2023/02/05 05:00:10;;;;;;;6.80;6.10;;;2.50;99.90;;;;;;4949878;28;20199;-74
2023/02/05 05:02:38;;;;;;;7.97;6.20;;;2.60;99.90;;;;;;4951278;28;20645;-71
2023/02/05 05:05:06;;;;;;;9.55;6.72;;;2.60;99.90;;;;;;4954081;28;20262;-72
2023/02/05 05:07:33;;;;;;;6.80;5.10;;;2.60;99.90;;;;;;4954827;28;20677;-73
2023/02/05 05:10:00;;;;;;;8.40;6.22;;;2.60;99.90;;;;;;4950466;29;20265;-73
2023/02/05 05:12:28;;;;;;;7.50;6.50;;;2.60;99.90;;;;;;4951824;29;20287;-73
2023/02/05 05:14:55;;;;;;;6.53;5.93;;;2.60;99.90;;;;;;4951601;29;20244;-72
2023/02/05 05:17:22;;;;;;;6.82;5.43;;;2.70;99.90;;;;;;4951442;29;20290;-71
2023/02/05 05:19:49;;;;;;;12.45;6.97;;;2.70;99.90;;;;;;4950535;28;20566;-73
2023/02/05 05:22:16;;;;;;;10.18;6.20;;;2.70;99.90;;;;;;4950101;28;20669;-70
2023/02/05 05:24:46;;;;;;;7.53;6.70;;;2.60;99.90;;;;;;4950670;28;20278;-72
2023/02/05 05:27:13;;;;;;;7.53;6.28;;;2.70;99.90;;;;;;4948367;29;20214;-72
2023/02/05 05:29:41;;;;;;;8.27;6.07;;;2.70;99.90;;;;;;4948520;28;20243;-74
2023/02/05 05:32:08;;;;;;;7.03;6.32;;;2.70;99.90;;;;;;4947945;29;20234;-73
2023/02/05 05:34:35;;;;;;;6.88;6.13;;;2.60;99.90;;;;;;4946064;28;20286;-71
2023/02/05 05:37:02;;;;;;;6.57;5.63;;;2.70;99.90;;;;;;4953450;28;20254;-72
2023/02/05 05:44:59;;;;;;;10.32;5.95;;;2.80;99.90;;;;;;4954179;29;20294;-71
2023/02/05 05:47:26;;;;;;;8.10;7.07;;;2.80;99.90;;;;;;4953790;28;20220;-73
2023/02/05 05:49:53;;;;;;;7.40;6.32;;;2.80;99.90;;;;;;4953851;28;20301;-74
2023/02/05 05:52:20;;;;;;;9.18;7.10;;;2.80;99.90;;;;;;4953999;28;20289;-74
2023/02/05 05:54:47;;;;;;;8.85;7.28;;;2.70;99.90;;;;;;4953626;28;20199;-73
2023/02/05 05:57:13;;;;;;;8.43;7.53;;;2.80;99.90;;;;;;4966996;28;20547;-73
2023/02/05 05:59:40;;;;;;;8.88;6.28;;;2.90;99.90;;;;;;4962025;28;20213;-73
2023/02/05 06:02:09;;;;;;;8.90;7.15;;;3.00;99.90;;;;;;4958016;28;20642;-72
2023/02/05 06:04:38;;;;;;;6.82;6.20;;;2.90;99.90;;;;;;4940186;28;20218;-73
2023/02/05 06:07:05;;;;;;;10.40;7.30;;;3.00;99.90;;;;;;4955534;28;20246;-72
2023/02/05 06:09:32;;;;;;;9.00;7.05;;;3.00;99.90;;;;;;4956848;28;20308;-72
2023/02/05 06:11:59;;;;;;;8.30;7.05;;;3.10;99.90;;;;;;4962644;28;20277;-72
2023/02/05 06:14:26;;;;;;;9.07;7.25;;;2.90;99.90;;;;;;4956797;28;20227;-73
2023/02/05 06:16:54;;;;;;;9.75;6.90;;;2.80;99.90;;;;;;4953807;29;20225;-72
2023/02/05 06:19:23;;;;;;;11.15;7.45;;;2.70;99.90;;;;;;4964394;28;20294;-73
2023/02/05 06:21:50;;;;;;;12.00;9.60;;;2.70;99.90;;;;;;4959513;28;20592;-74
2023/02/05 06:24:17;;;;;;;8.93;8.00;;;2.60;99.90;;;;;;4958570;28;20240;-71
2023/02/05 06:26:44;;;;;;;15.88;7.68;;;2.60;99.90;;;;;;4954362;28;20251;-71
2023/02/05 06:29:11;;;;;;;10.45;7.95;;;2.60;99.90;;;;;;4956819;28;20291;-72
2023/02/05 06:31:37;;;;;;;11.02;8.82;;;2.60;99.90;;;;;;4960926;28;20210;-71
2023/02/05 06:34:05;;;;;;;12.05;7.82;;;2.60;99.90;;;;;;4960146;28;20209;-72
2023/02/05 06:36:34;;;;;;;10.68;8.32;;;2.70;99.90;;;;;;4958927;28;20658;-72
2023/02/05 06:39:01;;;;;;;10.70;8.27;;;2.70;99.90;;;;;;4954562;28;20669;-73
2023/02/05 06:41:28;;;;;;;16.75;8.05;;;2.60;99.90;;;;;;4964067;28;20366;-72
2023/02/05 06:43:55;;;;;;;9.05;8.13;;;2.60;99.90;;;;;;4956413;28;20291;-71
2023/02/05 06:46:22;;;;;;;15.35;11.35;;;2.70;99.90;;;;;;4960210;28;20297;-74
2023/02/05 06:48:49;;;;;;;10.02;9.00;;;2.60;99.90;;;;;;4953554;28;20249;-72
2023/02/05 06:51:16;;;;;;;13.15;8.73;;;2.70;99.90;;;;;;4952661;28;20314;-72
2023/02/05 06:53:45;;;;;;;12.10;9.82;;;2.70;99.90;;;;;;4952575;28;20199;-74
2023/02/05 06:56:12;;;;;;;14.70;10.18;;;2.60;99.90;;;;;;4960862;28;20258;-73
2023/02/05 06:58:42;;;;;;;15.82;9.75;;;2.60;99.90;;;;;;4954948;28;20586;-73
2023/02/05 07:01:09;;;;;;;9.82;8.82;;;2.60;99.90;;;;;;4957826;28;20226;-75
2023/02/05 07:03:36;;;;;;;13.20;10.52;;;2.60;99.90;;;;;;4962415;28;20206;-72
2023/02/05 07:06:04;;;;;;;14.02;9.82;;;2.60;99.90;;;;;;4963861;28;20266;-73
2023/02/05 07:08:32;;;;;;;13.63;9.32;;;2.60;99.90;;;;;;4960092;28;20195;-73
2023/02/05 07:11:01;;;;;;;10.32;9.32;;;2.60;99.90;;;;;;4958582;28;20223;-72
2023/02/05 07:13:29;;;;;;;11.40;10.07;;;2.70;99.90;;;;;;4946298;28;20586;-74
2023/02/05 07:15:56;;;;;;;9.85;8.85;;;2.70;99.90;;;;;;4951298;28;20306;-74
2023/02/05 07:18:24;;;;;;;10.75;8.15;;;2.70;99.90;;;;;;4952371;28;20231;-73
2023/02/05 07:20:51;;;;;;;13.57;10.45;;;2.70;99.90;;;;;;4957811;28;20633;-72
2023/02/05 07:23:19;;;;;;;13.13;10.07;;;2.70;99.90;;;;;;4956649;28;20209;-73
2023/02/05 07:25:45;;;;;;;19.70;10.27;;;2.70;99.90;;;;;;4957149;28;20305;-74
2023/02/05 07:28:14;;;;;;;15.00;13.32;;;2.70;99.90;;;;;;4957738;28;20333;-72
2023/02/05 07:30:41;;;;;;;17.75;10.50;;;2.70;99.90;;;;;;4961424;28;20217;-72
2023/02/05 07:33:08;;;;;;;10.70;8.88;;;2.70;99.90;;;;;;4958602;28;20196;-73
2023/02/05 07:35:38;;;;;;;9.60;8.20;;;2.70;99.90;;;;;;4957183;28;20228;-73
2023/02/05 07:38:05;;;;;;;11.90;10.10;;;2.70;99.90;;;;;;4960269;28;20215;-74
2023/02/05 07:40:32;;;;;;;16.33;10.35;;;2.80;99.90;;;;;;4954404;28;20255;-74
2023/02/05 07:42:59;;;;;;;13.68;9.52;;;2.70;99.90;;;;;;4951608;28;20211;-74
2023/02/05 07:45:28;;;;;;;10.73;8.90;;;2.70;99.90;;;;;;4961567;28;20610;-74
2023/02/05 07:47:55;;;;;;;14.25;9.45;;;2.80;99.90;;;;;;4959474;28;20251;-73
2023/02/05 07:50:22;;;;;;;11.95;9.25;;;2.80;99.90;;;;;;4948209;28;20306;-74
2023/02/05 07:52:49;;;;;;;12.43;9.90;;;2.90;99.90;;;;;;4947588;28;20306;-73
2023/02/05 07:55:16;;;;;;;11.30;8.50;;;2.90;99.90;;;;;;4958002;28;20643;-73
2023/02/05 07:57:43;;;;;;;13.95;9.18;;;2.80;99.90;;;;;;4962661;28;20203;-74
2023/02/05 08:00:11;;;;;;;12.77;10.30;;;2.90;99.90;;;;;;4957420;28;20273;-74
2023/02/05 08:02:39;;;;;;;13.75;10.93;;;3.00;99.90;;;;;;4962351;28;20200;-73
2023/02/05 08:05:08;;;;;;;12.60;8.93;;;2.90;99.90;;;;;;4964276;28;20632;-73
2023/02/05 08:07:36;;;;;;;10.88;9.77;;;2.90;99.90;;;;;;4958533;28;20243;-73
2023/02/05 08:10:03;;;;;;;10.88;9.75;;;2.90;99.90;;;;;;4949850;28;20199;-73
2023/02/05 08:12:30;;;;;;;13.82;10.65;;;3.00;99.90;;;;;;4961468;28;20217;-72
2023/02/05 08:14:57;;;;;;;10.93;8.30;;;3.30;99.90;;;;;;4960836;28;20238;-74
2023/02/05 08:17:25;;;;;;;16.45;9.20;;;3.70;99.90;;;;;;4958916;28;20234;-73
2023/02/05 08:19:53;;;;;;;9.68;7.85;;;4.10;99.90;;;;;;4960134;28;20238;-74
2023/02/05 08:22:22;;;;;;;10.25;8.50;;;4.40;99.90;;;;;;4957817;28;20599;-72
2023/02/05 08:24:49;;;;;;;9.27;8.32;;;4.50;99.90;;;;;;4952547;28;20269;-74
2023/02/05 08:27:16;;;;;;;11.27;8.68;;;4.50;99.90;;;;;;4955527;28;20203;-73
2023/02/05 08:29:43;;;;;;;9.65;8.02;;;4.50;99.90;;;;;;4956715;28;20229;-75
2023/02/05 08:32:10;;;;;;;13.52;8.13;;;4.40;99.90;;;;;;4956470;28;20212;-74
2023/02/05 08:34:37;;;;;;;13.20;8.90;;;4.40;99.90;;;;;;4958463;28;20195;-73
2023/02/05 08:37:05;;;;;;;9.63;7.20;;;4.30;99.90;;;;;;4964095;28;20253;-73
2023/02/05 08:39:32;;;;;;;9.85;7.57;;;4.20;99.90;;;;;;4950212;28;20202;-74
2023/02/05 08:41:59;;;;;;;10.05;6.75;;;4.10;99.90;;;;;;4954079;28;20234;-74
2023/02/05 08:44:27;;;;;;;9.02;6.78;;;3.90;99.90;;;;;;4957149;28;20203;-72
2023/02/05 08:46:54;;;;;;;10.02;7.20;;;4.30;99.90;;;;;;4962817;28;20304;-71
2023/02/05 08:49:21;;;;;;;9.15;7.78;;;4.40;99.90;;;;;;4957845;28;20238;-75
2023/02/05 08:51:48;;;;;;;11.75;8.30;;;4.40;99.90;;;;;;4943936;28;20222;-74
2023/02/05 08:54:18;;;;;;;10.48;6.78;;;4.50;99.90;;;;;;4945291;28;20234;-75
2023/02/05 08:56:45;;;;;;;8.43;7.35;;;4.50;99.90;;;;;;4963205;28;20565;-74
2023/02/05 08:59:16;;;;;;;8.70;7.90;;;4.50;99.90;;;;;;4960707;28;20202;-75
2023/02/05 09:01:44;;;;;;;9.68;6.20;;;4.50;99.90;;;;;;4961175;28;20226;-75
2023/02/05 09:04:14;;;;;;;8.13;7.30;;;4.30;99.90;;;;;;4961495;28;20203;-75
2023/02/05 09:06:41;;;;;;;9.50;7.20;;;4.20;99.90;;;;;;4959180;28;20226;-74
2023/02/05 09:09:08;;;;;;;9.07;7.53;;;4.30;99.90;;;;;;4961026;28;20234;-74
2023/02/05 09:11:37;;;;;;;8.05;7.03;;;4.40;99.90;;;;;;4951319;28;20218;-74
2023/02/05 09:14:05;;;;;;;8.32;7.32;;;4.40;99.90;;;;;;4951999;28;20207;-76
2023/02/05 09:16:34;;;;;;;11.57;8.25;;;4.60;99.90;;;;;;4948051;28;20309;-73
2023/02/05 09:19:01;;;;;;;10.65;7.68;;;4.60;99.90;;;;;;4943063;28;20202;-74
2023/02/05 09:21:28;;;;;;;10.07;8.75;;;4.50;99.90;;;;;;4956086;28;20195;-77
2023/02/05 09:23:56;;;;;;;10.68;8.15;;;4.30;99.90;;;;;;4957279;28;20198;-74
2023/02/05 09:26:23;;;;;;;11.38;8.00;;;4.30;99.90;;;;;;4958044;28;20251;-76
2023/02/05 09:28:52;;;;;;;11.38;7.88;;;4.20;99.90;;;;;;4957641;28;20222;-74
2023/02/05 09:31:20;;;;;;;11.18;8.02;;;4.10;99.90;;;;;;4956358;28;20354;-75
2023/02/05 09:33:47;;;;;;;13.10;9.43;;;4.10;99.90;;;;;;4946450;28;20265;-72
2023/02/05 09:38:56;;;;;;;11.25;9.55;;;4.10;99.90;;;;;;5357585;22;20844;-72
2023/02/05 09:41:30;;;;;;;10.43;8.38;;;4.10;99.90;;;;;;4995274;28;20269;-76
2023/02/05 09:44:07;;;;;;;10.43;8.52;;;4.10;99.90;;;;;;4985838;28;20278;-72
2023/02/05 09:46:43;;;;;;;8.80;7.72;;;4.20;99.90;;;;;;4971730;28;20218;-74
2023/02/05 09:49:17;;;;;;;15.20;8.32;;;4.30;99.90;;;;;;4971585;28;20211;-73
2023/02/05 09:51:51;;;;;;;11.38;8.05;;;4.40;99.90;;;;;;4971884;28;20233;-72
2023/02/05 09:54:22;;;;;;;10.80;8.23;;;4.50;99.90;;;;;;4996405;28;20198;-72
2023/02/05 09:56:51;;;;;;;9.10;7.80;;;4.50;99.90;;;;;;4976130;28;20218;-75
2023/02/05 09:59:22;;;;;;;8.20;7.40;;;4.50;99.90;;;;;;4973009;28;20293;-73
2023/02/05 10:02:21;;;;;;;7.55;6.55;;;4.50;99.90;;;;;;5129898;27;20549;-76
2023/02/05 10:04:51;;;;;;;10.98;7.90;;;4.50;99.90;;;;;;5131642;27;20193;-73
2023/02/05 10:07:25;;;;;;;8.73;7.82;;;4.40;99.90;;;;;;5128732;27;20219;-71
2023/02/05 10:10:26;;;;;;;10.55;8.40;;;4.50;99.90;;;;;;5124710;27;20287;-74
2023/02/05 10:13:18;;;;;;;11.82;8.20;;;4.60;99.90;;;;;;5043529;28;20764;-75
2023/02/05 10:15:56;;;;;;;9.65;7.88;;;4.50;99.90;;;;;;5042770;28;20223;-72
2023/02/05 10:18:35;;;;;;;10.52;7.55;;;4.60;99.90;;;;;;5091292;27;20261;-74
2023/02/05 10:21:10;;;;;;;12.85;7.80;;;4.60;99.90;;;;;;5122829;28;20251;-71
2023/02/05 10:23:48;;;;;;;12.48;7.85;;;4.60;99.90;;;;;;5113048;27;20276;-72
2023/02/05 10:26:17;;;;;;;11.77;7.22;;;4.70;99.90;;;;;;5126923;27;20308;-71
2023/02/05 10:29:22;;;;;;;9.80;8.13;;;4.70;99.90;;;;;;5125519;27;20190;-73
2023/02/05 10:32:01;;;;;;;8.90;7.65;;;4.70;99.90;;;;;;5122971;27;20242;-73
2023/02/05 10:34:49;;;;;;;9.43;8.02;;;4.70;99.90;;;;;;5128489;27;20247;-72
2023/02/05 10:37:19;;;;;;;10.60;9.00;;;4.70;99.90;;;;;;5116188;27;20280;-74
2023/02/05 10:39:48;;;;;;;12.48;8.52;;;4.80;99.90;;;;;;5123674;27;20276;-71
2023/02/05 10:42:26;;;;;;;10.90;7.90;;;5.00;99.90;;;;;;5125933;27;20203;-72
2023/02/05 10:45:01;;;;;;;9.52;7.55;;;5.20;99.90;;;;;;5121802;27;20216;-73
2023/02/05 10:47:43;;;;;;;11.27;8.98;;;5.30;99.90;;;;;;5120466;27;20204;-76
2023/02/05 10:50:22;;;;;;;9.10;8.13;;;5.20;99.90;;;;;;5122302;27;20194;-75
2023/02/05 10:52:50;;;;;;;13.52;10.05;;;5.10;99.90;;;;;;5121005;27;20215;-72
2023/02/05 10:55:23;;;;;;;14.52;8.77;;;5.10;99.90;;;;;;5120619;27;20231;-75
2023/02/05 10:57:51;;;;;;;13.77;10.77;;;4.90;99.90;;;;;;5117077;27;20201;-75
2023/02/05 11:00:28;;;;;;;13.90;11.68;;;5.20;99.90;;;;;;5116214;27;20219;-73
2023/02/05 11:02:57;;;;;;;15.15;11.18;;;5.20;99.90;;;;;;5115990;27;20564;-76
2023/02/05 11:05:36;;;;;;;12.82;10.80;;;5.20;99.90;;;;;;5115932;27;20232;-75
2023/02/05 11:08:04;;;;;;;15.10;11.82;;;5.20;99.90;;;;;;5114755;27;20212;-75
2023/02/05 11:10:34;;;;;;;14.60;12.30;;;5.10;99.90;;;;;;5114222;27;20197;-79
2023/02/05 11:13:06;;;;;;;16.65;12.77;;;5.20;99.90;;;;;;5104064;28;20286;-75
2023/02/05 11:15:33;;;;;;;14.95;12.57;;;5.30;99.90;;;;;;5101593;28;20241;-74
2023/02/05 11:18:04;;;;;;;19.67;14.05;;;5.20;99.90;;;;;;5100008;27;20249;-74
2023/02/05 11:20:34;;;;;;;14.27;11.55;;;5.10;99.90;;;;;;5100855;28;20229;-73
2023/02/05 11:23:15;;;;;;;20.95;14.73;;;5.10;99.90;;;;;;5100250;28;20270;-74
2023/02/05 11:25:50;;;;;;;19.50;14.23;;;5.10;99.90;;;;;;5102128;28;20257;-73
2023/02/05 11:28:24;;;;;;;16.63;14.23;;;5.10;99.90;;;;;;5100644;28;20244;-75
2023/02/05 11:30:51;;;;;;;22.85;17.10;;;5.00;99.90;;;;;;5101275;28;20198;-73
2023/02/05 11:33:30;;;;;;;24.25;15.52;;;5.20;99.90;;;;;;5099575;28;21696;-71
2023/02/05 11:36:00;;;;;;;18.38;14.95;;;5.20;99.90;;;;;;5103279;28;20233;-72
2023/02/05 11:38:43;;;;;;;25.38;15.85;;;5.20;99.90;;;;;;5103435;28;20286;-74
2023/02/05 11:41:12;;;;;;;18.40;14.35;;;5.20;99.90;;;;;;5104483;28;20301;-74
2023/02/05 11:43:45;;;;;;;23.05;15.32;;;5.60;99.90;;;;;;5107981;28;20218;-71
2023/02/05 11:46:18;;;;;;;24.75;18.10;;;5.50;99.90;;;;;;5109644;28;20253;-74
2023/02/05 11:48:51;;;;;;;24.98;18.55;;;5.50;99.90;;;;;;5110118;28;20316;-73
2023/02/05 11:51:38;;;;;;;24.17;17.25;;;5.40;99.90;;;;;;5108318;28;20208;-70
2023/02/05 11:54:16;;;;;;;20.75;17.80;;;5.40;99.90;;;;;;5111954;28;20322;-72
2023/02/05 11:56:43;;;;;;;25.60;19.80;;;5.50;99.90;;;;;;5110506;27;20952;-73
2023/02/05 11:59:20;;;;;;;25.90;18.55;;;5.40;99.90;;;;;;5107564;27;20225;-73
2023/02/05 12:01:47;;;;;;;22.95;19.13;;;5.40;99.90;;;;;;5106098;27;20310;-75
2023/02/05 12:19:56;;;;;;;28.27;22.00;;;5.60;99.90;;;;;;3717415;22;20617;-69
2023/02/05 12:22:48;;;;;;;25.95;21.48;;;5.70;99.90;;;;;;5044339;28;20765;-68
2023/02/05 12:25:22;;;;;;;28.67;20.25;;;5.70;99.90;;;;;;5043741;28;20300;-71
2023/02/05 12:28:16;;;;;;;32.08;20.08;;;5.70;99.90;;;;;;5035130;28;20224;-69
2023/02/05 12:30:56;;;;;;;31.65;22.10;;;5.70;99.90;;;;;;5032252;28;20201;-68
2023/02/05 12:34:05;;;;;;;33.95;23.38;;;5.70;99.90;;;;;;5044767;28;20214;-70
2023/02/05 12:36:58;;;;;;;38.20;24.25;;;5.60;99.90;;;;;;5007444;28;20584;-67
2023/02/05 12:39:38;;;;;;;30.55;23.00;;;5.50;99.90;;;;;;5030008;28;20211;-70
2023/02/05 12:42:19;;;;;;;34.53;25.13;;;5.50;99.90;;;;;;5027648;28;20697;-71
2023/02/05 12:45:18;;;;;;;37.53;23.67;;;5.50;99.90;;;;;;5026560;28;20720;-71
2023/02/05 12:47:57;;;;;;;39.70;24.40;;;5.40;99.90;;;;;;5023341;28;20285;-70
2023/02/05 12:50:49;;;;;;;30.25;23.90;;;5.50;99.90;;;;;;5019598;28;20287;-71
2023/02/05 12:53:43;;;;;;;33.70;23.20;;;5.50;99.90;;;;;;5028458;28;20201;-70
2023/02/05 12:56:38;;;;;;;36.22;24.13;;;5.60;99.90;;;;;;5014111;28;20272;-70
2023/02/05 12:59:12;;;;;;;30.35;23.48;;;5.70;99.90;;;;;;5020094;28;20218;-70
2023/02/05 13:01:44;;;;;;;28.02;21.65;;;5.80;99.90;;;;;;5023774;28;20681;-71
2023/02/05 13:04:22;;;;;;;28.25;21.08;;;5.90;99.90;;;;;;5032526;28;20211;-71
2023/02/05 13:06:55;;;;;;;28.90;21.23;;;6.00;99.90;;;;;;5032849;28;20839;-70
2023/02/05 13:09:30;;;;;;;27.42;20.83;;;6.10;99.90;;;;;;5024377;28;20199;-73
2023/02/05 13:12:01;;;;;;;27.42;19.17;;;6.20;99.90;;;;;;5034119;28;20296;-70
2023/02/05 13:18:30;;;;;;;27.92;21.00;;;6.10;99.90;;;;;;5034145;28;20204;-85
2023/02/05 15:41:43;;;;;;;27.50;19.75;;;6.00;99.90;;;;;;5071679;28;20228;-74
2023/02/05 15:44:21;;;;;;;32.35;21.60;;;5.90;99.90;;;;;;5074794;28;20215;-74
2023/02/05 15:46:49;;;;;;;28.55;19.60;;;5.90;99.90;;;;;;5051753;28;20221;-76
2023/02/05 15:49:30;;;;;;;25.25;18.80;;;5.90;99.90;;;;;;5038078;28;20210;-74
2023/02/05 15:51:58;;;;;;;30.08;20.10;;;5.80;99.90;;;;;;5053810;28;20295;-75
2023/02/05 15:54:25;;;;;;;29.80;20.55;;;5.80;99.90;;;;;;5047364;28;20241;-76
2023/02/05 15:56:54;;;;;;;28.33;20.88;;;5.90;99.90;;;;;;5061940;28;20253;-76
2023/02/05 15:59:26;;;;;;;26.90;20.58;;;5.90;99.90;;;;;;5050382;28;20261;-75